Time;durP1;ratioP1;P1;durP2;ratioP2;P2;SDS_P1;SDS_P2;PMS_P1;PMS_P2;Temp;Humidity;BMP_temperature;BMP_pressure;BME280_temperature;BME280_humidity;BME280_pressure;Samples;Min_cycle;Max_cycle;Signal;HPM_P1;HPM_P2
2022/12/25 00:00:28;;;;;;;;;13.75;11.75;;;;;9.55;100.00;100477.34;4945878;28;44978;-93
2022/12/25 00:13:44;;;;;;;;;10.25;9.25;;;;;8.78;100.00;100329.19;4866163;29;45299;-92
2022/12/25 00:16:30;;;;;;;;;11.50;11.50;;;;;9.20;100.00;100386.47;4855689;29;45350;-93
2022/12/25 00:19:06;;;;;;;;;10.75;7.00;;;;;9.75;100.00;100474.38;4874167;29;47147;-92
2022/12/25 00:21:47;;;;;;;;;16.00;14.25;;;;;9.65;100.00;100457.81;4855119;29;44925;-91
2022/12/25 00:24:21;;;;;;;;;12.00;10.50;;;;;9.32;100.00;100390.69;4852237;29;45262;-92
2022/12/25 00:26:52;;;;;;;;;10.25;10.25;;;;;9.66;100.00;100438.44;4872840;29;45532;-92
2022/12/25 00:29:32;;;;;;;;;13.25;11.25;;;;;9.22;100.00;100371.53;4873287;29;47353;-92
2022/12/25 00:49:06;;;;;;;;;8.25;7.00;;;;;9.23;100.00;100373.25;4963282;28;45445;-93
2022/12/25 00:58:41;;;;;;;;;16.75;13.50;;;;;10.20;100.00;100492.84;4932194;28;44902;-93
2022/12/25 01:01:16;;;;;;;;;11.75;11.75;;;;;8.49;100.00;100183.03;4925228;28;45318;-92
2022/12/25 01:03:50;;;;;;;;;18.00;16.00;;;;;10.08;100.00;100467.56;4922938;28;45561;-92
2022/12/25 01:06:49;;;;;;;;;15.75;15.50;;;;;10.58;100.00;100541.47;4924900;28;47665;-92
2022/12/25 01:12:19;;;;;;;;;18.75;16.50;;;;;10.65;100.00;100573.91;4943967;28;45411;-92
2022/12/25 01:14:45;;;;;;;;;15.75;14.75;;;;;9.53;100.00;100365.69;4941466;28;45533;-92
2022/12/25 01:17:14;;;;;;;;;24.00;21.25;;;;;9.78;100.00;100417.09;4945966;28;47013;-92
2022/12/25 01:19:39;;;;;;;;;20.00;16.50;;;;;9.81;100.00;100420.56;4946268;28;45277;-91
2022/12/25 01:22:05;;;;;;;;;20.50;16.50;;;;;9.97;100.00;100437.84;4946709;28;45245;-91
2022/12/25 01:24:31;;;;;;;;;18.25;15.75;;;;;10.01;100.00;100452.75;4949385;28;45411;-92
2022/12/25 01:26:58;;;;;;;;;17.25;16.00;;;;;10.63;100.00;100571.31;4962727;28;48264;-91
2022/12/25 01:29:23;;;;;;;;;15.00;13.25;;;;;10.11;100.00;100472.78;4946914;28;45287;-92
2022/12/25 01:31:49;;;;;;;;;14.25;14.25;;;;;10.27;100.00;100483.03;4968402;28;45624;-92
2022/12/25 01:34:14;;;;;;;;;15.25;13.00;;;;;9.43;100.00;100362.34;4949073;28;45418;-93
2022/12/25 01:36:43;;;;;;;;;16.00;12.50;;;;;10.66;100.00;100580.97;4959995;28;45913;-92
2022/12/25 01:39:10;;;;;;;;;16.00;14.50;;;;;10.67;100.00;100566.81;4956791;28;44712;-92
2022/12/25 01:41:38;;;;;;;;;16.00;15.50;;;;;9.91;100.00;100444.09;4945368;28;45244;-92
2022/12/25 01:44:05;;;;;;;;;14.25;12.25;;;;;10.31;100.00;100503.22;4911672;28;45381;-92
2022/12/25 01:46:31;;;;;;;;;16.75;16.25;;;;;10.00;100.00;100460.69;4924834;28;47897;-92
2022/12/25 01:49:19;;;;;;;;;14.00;11.25;;;;;10.62;100.00;100573.97;4925235;28;45345;-92
2022/12/25 01:52:03;;;;;;;;;12.00;9.25;;;;;10.75;100.00;100559.63;4929374;28;45435;-93
2022/12/25 01:54:37;;;;;;;;;12.25;11.50;;;;;9.13;100.00;100300.50;4932000;28;45402;-92
2022/12/25 01:57:08;;;;;;;;;11.25;11.25;;;;;9.50;100.00;100339.34;4934747;28;46815;-92
2022/12/25 02:00:00;;;;;;;;;8.25;8.25;;;;;10.43;100.00;100505.66;4933561;28;45298;-92
2022/12/25 02:02:28;;;;;;;;;5.25;4.00;;;;;9.82;100.00;100395.91;4931207;28;44713;-92
2022/12/25 02:05:29;;;;;;;;;10.25;8.50;;;;;9.15;100.00;100267.91;4945604;28;45315;-96
2022/12/25 02:08:01;;;;;;;;;10.75;10.75;;;;;9.71;100.00;100360.03;4934063;28;46147;-96
2022/12/25 02:10:37;;;;;;;;;13.25;11.00;;;;;9.72;100.00;100368.84;4920384;28;44796;-93
2022/12/25 02:13:35;;;;;;;;;;;;;;;;;;;;;
2022/12/25 02:16:01;;;;;;;;;9.75;8.00;;;;;10.84;100.00;100554.13;4958002;28;69086;-94
2022/12/25 02:18:52;;;;;;;;;11.00;9.50;;;;;8.78;100.00;100215.03;4933622;28;46194;-95
2022/12/25 02:21:49;;;;;;;;;11.25;9.50;;;;;10.87;100.00;100539.09;4935985;28;45296;-94
2022/12/25 02:24:27;;;;;;;;;8.00;7.25;;;;;10.87;100.00;100533.81;4936667;28;45217;-95
2022/12/25 02:27:17;;;;;;;;;11.25;8.00;;;;;10.44;100.00;100457.16;4933065;28;45502;-96
2022/12/25 02:30:03;;;;;;;;;13.00;13.00;;;;;9.97;100.00;100400.88;4925060;28;45389;-95
2022/12/25 02:32:34;;;;;;;;;12.00;10.50;;;;;10.86;100.00;100556.75;4873519;29;45337;-92
2022/12/25 02:35:12;;;;;;;;;6.75;6.75;;;;;10.87;100.00;100541.75;4887853;29;45469;-92
2022/12/25 02:37:53;;;;;;;;;12.50;11.75;;;;;10.45;100.00;100456.28;4889252;29;45335;-92
2022/12/25 02:40:42;;;;;;;;;12.50;12.00;;;;;9.75;100.00;100337.97;4901721;28;48176;-92
2022/12/25 03:13:50;;;;;;;;;;;;;;;;;;;;;
2022/12/25 03:16:57;;;;;;;;;13.25;11.75;;;;;10.80;100.00;100509.28;4892088;29;74658;-92
2022/12/25 03:28:28;;;;;;;;;16.25;15.25;;;;;9.13;100.00;100209.06;4871404;29;45733;-92
2022/12/25 03:31:12;;;;;;;;;16.00;13.00;;;;;10.83;100.00;100496.00;4879655;29;45493;-91
2022/12/25 04:36:09;;;;;;;;;21.00;16.75;;;;;10.79;100.00;100409.72;4922210;28;45421;-92
2022/12/25 04:38:44;;;;;;;;;21.50;19.50;;;;;9.17;100.00;100121.09;4921031;28;45410;-92
2022/12/25 04:41:25;;;;;;;;;21.50;20.00;;;;;9.59;100.00;100201.97;4921811;28;47075;-93
2022/12/25 04:44:11;;;;;;;;;;;;;;;;;;;;;
2022/12/25 04:47:01;;;;;;;;;19.75;17.75;;;;;9.31;100.00;100160.34;4928420;28;68733;-92
2022/12/25 04:49:38;;;;;;;;;18.50;16.25;;;;;9.81;100.00;100267.47;4932920;28;45295;-91
2022/12/25 04:55:29;;;;;;;;;15.50;13.25;;;;;8.81;100.00;100077.94;4931950;28;45421;-92
2022/12/25 04:58:17;;;;;;;;;16.00;15.00;;;;;10.48;100.00;100365.50;4922563;28;45273;-92
2022/12/25 05:00:46;;;;;;;;;16.75;14.00;;;;;10.84;100.00;100418.41;4908235;28;45599;-92
2022/12/25 05:03:29;;;;;;;;;24.00;19.75;;;;;10.09;100.00;100289.72;4893317;29;47784;-92
2022/12/25 05:06:08;;;;;;;;;20.00;18.00;;;;;9.00;100.00;100081.03;4906460;29;45400;-91
2022/12/25 05:08:45;;;;;;;;;21.75;19.25;;;;;9.82;100.00;100184.75;4887540;29;45279;-91
2022/12/25 05:11:17;;;;;;;;;15.25;13.25;;;;;10.46;100.00;100275.69;4885050;29;45238;-92
2022/12/25 05:13:50;;;;;;;;;18.75;16.75;;;;;10.01;100.00;100175.50;4922384;28;45273;-91
2022/12/25 05:16:23;;;;;;;;;16.25;15.75;;;;;9.56;100.00;100120.25;4922083;28;45411;-92
2022/12/25 05:18:50;;;;;;;;;17.00;14.25;;;;;8.86;100.00;99999.63;4910908;29;45426;-93
2022/12/25 05:21:16;;;;;;;;;18.25;18.00;;;;;10.20;100.00;100239.28;4911917;29;45518;-92
2022/12/25 05:23:49;;;;;;;;;13.25;12.00;;;;;10.83;100.00;100372.59;4908777;29;47382;-91
2022/12/25 05:26:29;;;;;;;;;19.50;14.75;;;;;9.36;100.00;100121.56;4910034;29;45424;-92
2022/12/25 05:28:55;;;;;;;;;18.25;17.25;;;;;9.98;100.00;100204.63;4901478;29;45375;-92
2022/12/25 05:31:21;;;;;;;;;13.25;12.25;;;;;9.20;100.00;100088.50;4887863;28;45390;-91
2022/12/25 05:33:50;;;;;;;;;17.00;16.25;;;;;10.55;100.00;100319.53;4930421;28;46316;-92
2022/12/25 05:36:19;;;;;;;;;19.50;17.50;;;;;10.75;100.00;100334.03;4910237;28;45327;-93
2022/12/25 05:38:45;;;;;;;;;16.75;14.75;;;;;10.47;100.00;100284.47;4910594;28;45289;-92
2022/12/25 05:41:11;;;;;;;;;16.75;15.50;;;;;10.12;100.00;100257.94;4918201;28;45193;-91
2022/12/25 05:43:37;;;;;;;;;20.50;17.75;;;;;9.81;100.00;100206.75;4918513;28;48101;-92
2022/12/25 05:46:07;;;;;;;;;17.25;15.75;;;;;10.48;100.00;100324.09;4946938;28;44635;-95
2022/12/25 05:48:37;;;;;;;;;24.25;22.25;;;;;9.14;100.00;100096.56;4920889;28;45321;-94
2022/12/25 05:51:08;;;;;;;;;15.75;15.25;;;;;9.20;100.00;100101.69;4934631;28;44967;-94
2022/12/25 05:53:35;;;;;;;;;19.50;16.50;;;;;10.87;100.00;100372.50;4914370;28;47048;-93
2022/12/25 05:59:43;;;;;;;;;17.75;17.25;;;;;10.19;100.00;100236.69;4930426;28;45375;-94
2022/12/25 06:02:19;;;;;;;;;16.00;16.00;;;;;10.28;100.00;100286.69;4914042;28;44944;-95
2022/12/25 06:04:53;;;;;;;;;19.50;15.50;;;;;9.21;100.00;100093.75;4917049;28;46070;-95
2022/12/25 06:07:29;;;;;;;;;23.50;18.25;;;;;10.28;100.00;100274.34;4918887;28;45205;-94
2022/12/25 06:10:03;;;;;;;;;17.00;16.00;;;;;10.86;100.00;100369.00;4942810;28;44765;-96
2022/12/25 06:12:29;;;;;;;;;19.00;17.00;;;;;10.46;100.00;100283.63;4929253;28;46441;-96
2022/12/25 06:14:58;;;;;;;;;17.25;17.00;;;;;10.09;100.00;100234.25;4924723;28;46250;-94
2022/12/25 06:17:26;;;;;;;;;16.75;16.75;;;;;10.24;100.00;100240.09;4943086;28;44773;-95
2022/12/25 06:20:03;;;;;;;;;17.50;16.00;;;;;10.17;100.00;100217.38;4927404;28;44701;-96
2022/12/25 06:28:59;;;;;;;;;14.00;11.50;;;;;10.22;100.00;100216.38;4934603;28;44645;-94
2022/12/25 06:31:25;;;;;;;;;22.75;19.00;;;;;10.48;100.00;100247.47;4909355;28;45255;-94
2022/12/25 06:34:20;;;;;;;;;;;;;;;;;;;;;
2022/12/25 06:36:50;;;;;;;;;16.00;16.00;;;;;9.69;100.00;100126.13;4908812;29;75310;-94
2022/12/25 06:42:07;;;;;;;;;12.00;10.25;;;;;10.27;100.00;100229.47;4909184;28;45231;-94
2022/12/25 06:44:36;;;;;;;;;14.75;10.75;;;;;10.29;100.00;100209.16;4895049;29;44856;-95
2022/12/25 06:47:04;;;;;;;;;18.00;13.75;;;;;9.10;100.00;100005.25;4897603;29;47385;-94
2022/12/25 06:49:33;;;;;;;;;15.50;14.75;;;;;10.81;100.00;100305.69;4915941;29;45066;-95
2022/12/25 06:51:59;;;;;;;;;16.25;14.00;;;;;10.20;100.00;100197.03;4916747;29;44957;-96
2022/12/25 06:54:26;;;;;;;;;14.75;13.75;;;;;9.69;100.00;100140.16;4910867;29;45377;-95
2022/12/25 06:56:53;;;;;;;;;14.50;9.75;;;;;9.00;100.00;100016.03;4875934;29;46710;-94
2022/12/25 06:59:19;;;;;;;;;8.00;8.00;;;;;9.02;100.00;100008.94;4896874;29;45201;-95
2022/12/25 07:01:56;;;;;;;;;16.00;15.75;;;;;10.18;100.00;100219.13;4883427;29;45262;-94
2022/12/25 07:04:50;;;;;;;;;14.25;13.50;;;;;8.93;100.00;100017.06;4893899;29;45267;-96
2022/12/25 07:53:36;;;;;;;;;14.50;13.50;;;;;9.95;100.00;100159.81;4985062;28;45484;-93
2022/12/25 07:56:14;;;;;;;;;13.75;12.50;;;;;10.53;100.00;100263.19;4985473;28;45437;-91
2022/12/25 07:58:41;;;;;;;;;14.75;13.75;;;;;10.57;100.00;100285.16;4969209;28;45316;-94
2022/12/25 08:01:16;;;;;;;;;15.75;14.00;;;;;10.54;100.00;100277.28;4965839;28;47273;-94
2022/12/25 08:03:50;;;;;;;;;13.25;12.25;;;;;8.80;100.00;99999.75;4969283;28;45380;-92
2022/12/25 08:06:25;;;;;;;;;15.50;15.50;;;;;9.09;100.00;100045.69;4963018;28;45266;-91
2022/12/25 08:15:47;;;;;;;;;12.75;12.00;;;;;10.45;100.00;100291.59;4971750;28;44789;-93
2022/12/25 08:18:28;;;;;;;;;11.75;11.75;;;;;9.73;100.00;100185.81;4954448;28;45414;-93
2022/12/25 08:21:00;;;;;;;;;11.50;11.50;;;;;8.38;100.00;99957.59;4966511;28;45389;-91
2022/12/25 10:00:51;;;;;;;;;10.50;6.75;;;;;9.39;100.00;100155.78;1293212;22;46611;-91
2022/12/25 10:03:22;;;;;;;;;9.25;7.75;;;;;10.14;100.00;100287.84;4887032;29;45301;-92
2022/12/25 10:06:05;;;;;;;;;11.75;6.50;;;;;9.54;100.00;100201.22;4919579;28;45358;-92
2022/12/25 10:08:46;;;;;;;;;7.75;6.50;;;;;9.88;100.00;100221.56;4899607;29;45758;-94
2022/12/25 10:11:37;;;;;;;;;13.50;11.50;;;;;10.21;100.00;100266.59;4911994;29;45189;-93
2022/12/25 10:14:09;;;;;;;;;12.50;10.00;;;;;10.24;100.00;100271.78;4913275;29;45455;-94
2022/12/25 10:16:43;;;;;;;;;12.75;11.75;;;;;10.25;100.00;100268.25;4902729;29;45273;-94
2022/12/25 10:19:33;;;;;;;;;9.25;8.50;;;;;10.32;100.00;100264.53;4901308;29;47318;-93
2022/12/25 10:22:37;;;;;;;;;8.25;8.25;;;;;10.34;100.00;100262.78;4903293;29;45993;-94
2022/12/25 10:25:05;;;;;;;;;8.00;8.00;;;;;10.35;100.00;100267.16;4880151;29;44793;-95
2022/12/25 10:27:39;;;;;;;;;6.00;6.00;;;;;10.01;100.00;100212.47;4902887;29;45204;-95
2022/12/25 10:30:20;;;;;;;;;8.75;8.75;;;;;10.38;100.00;100264.44;4890875;29;47106;-94
2022/12/25 10:32:47;;;;;;;;;11.25;7.00;;;;;9.75;100.00;100140.03;4897258;29;45506;-95
2022/12/25 10:35:16;;;;;;;;;10.50;8.00;;;;;8.65;100.00;99949.13;4893148;29;45403;-95
2022/12/25 10:37:47;;;;;;;;;5.50;5.00;;;;;9.37;100.00;100072.31;4904584;29;44920;-95
2022/12/25 10:40:32;;;;;;;;;9.50;9.50;;;;;10.52;100.00;100260.59;4896206;29;45326;-96
2022/12/25 10:50:24;;;;;;;;;8.50;7.25;;;;;10.24;100.00;100195.19;4881435;29;45251;-93
2022/12/25 10:53:08;;;;;;;;;7.50;7.50;;;;;9.09;100.00;99980.66;4901856;28;47165;-95
2022/12/25 10:55:34;;;;;;;;;10.75;8.00;;;;;9.82;100.00;100111.69;4927436;28;45230;-93
2022/12/25 10:58:29;;;;;;;;;9.00;9.00;;;;;9.12;100.00;99979.72;4924755;28;45381;-94
2022/12/25 11:01:06;;;;;;;;;8.25;8.25;;;;;9.09;100.00;99991.19;4925326;28;45545;-93
2022/12/25 11:08:10;;;;;;;;;;;;;;;;;;;;;
2022/12/25 11:11:37;;;;;;;;;8.50;7.75;;;;;10.97;100.00;100239.16;4838725;29;69090;-95
2022/12/25 11:27:32;;;;;;;;;11.25;9.75;;;;;10.06;100.00;100062.69;4718342;30;45458;-92
2022/12/25 11:30:04;;;;;;;;;13.75;9.50;;;;;10.30;100.00;100136.94;4719254;30;47275;-93
2022/12/25 11:32:42;;;;;;;;;10.00;10.00;;;;;11.18;100.00;100272.97;4716407;30;45303;-92
2022/12/25 11:35:17;;;;;;;;;9.25;9.00;;;;;10.96;100.00;100243.59;4698965;30;45471;-93
2022/12/25 11:37:51;;;;;;;;;12.50;11.75;;;;;10.60;100.00;100168.78;4693733;30;45370;-92
2022/12/25 11:40:25;;;;;;;;;7.00;5.00;;;;;11.22;100.00;100273.78;4693173;30;46661;-93
2022/12/25 11:43:04;;;;;;;;;10.25;8.50;;;;;10.86;100.00;100238.59;4707200;29;45297;-92
2022/12/25 11:45:40;;;;;;;;;3.50;2.00;;;;;9.30;100.00;99955.53;4797710;29;45451;-91
2022/12/25 11:48:44;;;;;;;;;7.00;7.00;;;;;11.30;100.00;100305.31;4804841;29;44892;-93
2022/12/25 11:51:12;;;;;;;;;8.50;8.00;;;;;10.76;100.00;100196.53;4810965;29;47327;-91
2022/12/25 11:54:18;;;;;;;;;8.00;8.00;;;;;10.28;100.00;100105.28;4857357;28;45917;-94
2022/12/25 11:56:44;;;;;;;;;8.75;8.75;;;;;9.69;100.00;99987.09;4847675;29;45398;-93
2022/12/25 11:59:37;;;;;;;;;9.00;8.00;;;;;11.38;100.00;100237.16;4860742;29;45270;-91
2022/12/25 12:02:23;;;;;;;;;9.00;7.75;;;;;11.09;100.00;100230.03;4864921;29;47466;-93
2022/12/25 12:05:02;;;;;;;;;9.00;9.00;;;;;10.99;100.00;100188.00;4832622;29;45353;-92
2022/12/25 12:07:31;;;;;;;;;9.00;9.00;;;;;11.43;100.00;100260.84;4837496;29;45412;-93
2022/12/25 12:10:14;;;;;;;;;8.00;8.00;;;;;10.66;100.00;100121.06;4864232;29;45286;-92
2022/12/25 12:13:05;;;;;;;;;10.75;9.75;;;;;11.46;100.00;100242.22;4856314;29;45503;-94
2022/12/25 12:15:53;;;;;;;;;12.75;7.00;;;;;11.35;100.00;100231.94;4845393;29;45332;-94
2022/12/25 12:18:20;;;;;;;;;8.50;8.50;;;;;11.44;100.00;100222.88;4849981;29;45311;-93
2022/12/25 12:21:20;;;;;;;;;9.00;8.00;;;;;9.58;100.00;99909.97;4848103;29;45012;-92
2022/12/25 12:24:25;;;;;;;;;8.00;7.00;;;;;11.10;100.00;100166.53;4834409;29;47166;-91
2022/12/25 12:27:31;;;;;;;;;8.00;8.00;;;;;10.71;100.00;100102.41;4812361;29;44653;-92
2022/12/25 12:33:36;;;;;;;;;15.00;11.00;;;;;11.46;100.00;100198.09;4809585;29;45383;-91
2022/12/25 12:36:04;;;;;;;;;5.50;5.50;;;;;10.99;100.00;100129.81;4885181;29;46382;-92
2022/12/25 12:38:42;;;;;;;;;;;;;;;;;;;;;
2022/12/25 12:41:11;;;;;;;;;7.75;7.75;;;;;10.06;100.00;99972.91;4874878;29;67148;-91
2022/12/25 12:43:42;;;;;;;;;13.50;12.00;;;;;10.70;100.00;100098.88;4878467;29;45532;-93
2022/12/25 12:46:30;;;;;;;;;13.25;11.75;;;;;10.51;100.00;100053.63;4858522;29;45362;-92
2022/12/25 12:49:19;;;;;;;;;10.00;8.50;;;;;10.81;100.00;100094.19;4834754;29;45513;-93
2022/12/25 12:51:44;;;;;;;;;8.75;8.75;;;;;9.73;100.00;99914.88;4851180;29;45438;-92
2022/12/25 12:54:27;;;;;;;;;13.75;10.50;;;;;10.39;100.00;100016.97;4850286;29;45318;-92
2022/12/25 12:57:00;;;;;;;;;7.75;6.75;;;;;10.15;100.00;99961.25;4858384;29;45658;-92
2022/12/25 12:59:49;;;;;;;;;;;;;;;;;;;;;
2022/12/25 13:02:35;;;;;;;;;10.50;10.25;;;;;11.44;100.00;100123.19;4868510;29;68844;-92
2022/12/25 13:05:36;;;;;;;;;11.25;11.00;;;;;11.30;100.00;100080.41;4896479;29;45268;-92
2022/12/25 13:08:27;;;;;;;;;10.75;8.00;;;;;12.31;100.00;100182.22;4908682;28;48564;-92
2022/12/25 13:11:07;;;;;;;;;14.75;10.00;;;;;11.51;100.00;100020.66;4903654;28;45362;-93
2022/12/25 13:13:40;;;;;;;;;10.50;7.25;;;;;12.57;100.00;100201.69;4908453;28;45446;-92
2022/12/25 13:16:21;;;;;;;;;8.00;6.50;;;;;12.09;100.00;100097.31;4906260;28;45441;-92
2022/12/25 13:18:51;;;;;;;;;10.25;8.50;;;;;11.94;100.00;100068.72;4927247;28;46213;-92
2022/12/25 13:21:27;;;;;;;;;7.25;6.50;;;;;12.73;100.00;100199.38;4932279;28;45339;-92
2022/12/25 13:24:02;;;;;;;;;7.75;7.25;;;;;11.15;100.00;99938.91;4933432;28;45363;-91
2022/12/25 13:26:29;;;;;;;;;11.00;10.00;;;;;12.16;100.00;100090.00;4931268;28;45343;-92
2022/12/25 13:28:57;;;;;;;;;9.75;7.50;;;;;11.54;100.00;99981.72;4930286;28;47228;-93
2022/12/25 13:31:25;;;;;;;;;8.00;7.00;;;;;12.24;100.00;100088.84;4924235;28;45268;-92
2022/12/25 13:33:58;;;;;;;;;8.25;8.25;;;;;12.86;100.00;100183.91;4942876;28;45250;-92
2022/12/25 13:36:28;;;;;;;;;7.00;7.00;;;;;11.89;100.00;100032.59;4936200;28;45634;-92
2022/12/25 13:38:56;;;;;;;;;7.00;6.00;;;;;12.12;100.00;100061.91;4939588;28;47077;-93
2022/12/25 13:44:23;;;;;;;;;6.00;6.00;;;;;12.91;100.00;100212.00;4904734;29;45364;-93
2022/12/25 13:46:51;;;;;;;;;5.25;5.25;;;;;11.41;100.00;99946.00;4890095;29;45681;-92
2022/12/25 13:49:20;;;;;;;;;4.75;4.75;;;;;11.69;100.00;99976.81;4934977;28;47895;-92
2022/12/25 13:51:47;;;;;;;;;5.00;5.00;;;;;11.84;100.00;100008.09;4930714;28;45533;-92
2022/12/25 13:54:15;;;;;;;;;5.25;5.25;;;;;11.65;100.00;99978.72;4913116;28;45364;-92
2022/12/25 13:56:52;;;;;;;;;7.50;7.50;;;;;12.16;100.00;100075.00;4907401;28;45315;-93
2022/12/25 13:59:24;;;;;;;;;4.75;4.75;;;;;12.91;100.00;100206.69;4925846;28;48436;-92
2022/12/25 14:01:52;;;;;;;;;6.25;6.25;;;;;10.93;100.00;99862.06;4945690;28;45734;-90
2022/12/25 14:04:23;;;;;;;;;8.00;6.25;;;;;12.93;100.00;100210.16;4954985;28;45196;-92
2022/12/25 14:06:50;;;;;;;;;5.00;4.00;;;;;12.92;100.00;100215.50;4920280;28;45324;-91
2022/12/25 14:09:17;;;;;;;;;7.50;5.25;;;;;12.34;100.00;100112.38;4940556;28;47121;-92
2022/12/25 14:11:48;;;;;;;;;10.25;8.00;;;;;12.37;100.00;100133.47;4944965;28;45624;-93
2022/12/25 14:14:23;;;;;;;;;6.00;6.00;;;;;12.94;100.00;100242.88;4942654;28;45557;-92
2022/12/25 14:16:50;;;;;;;;;6.00;5.00;;;;;12.24;100.00;100133.88;4924324;28;45495;-92
2022/12/25 14:19:32;;;;;;;;;6.00;6.00;;;;;11.90;100.00;100062.59;4920879;28;47080;-91
2022/12/25 14:22:01;;;;;;;;;6.00;6.00;;;;;12.93;100.00;100227.84;4925716;28;45348;-92
2022/12/25 14:24:28;;;;;;;;;6.25;6.25;;;;;11.91;100.00;100070.50;4927224;28;45465;-92
2022/12/25 14:27:21;;;;;;;;;6.50;6.50;;;;;12.89;100.00;100237.72;4907319;29;45597;-93
2022/12/25 14:29:49;;;;;;;;;7.00;7.00;;;;;11.38;100.00;99983.13;4905009;29;46810;-92
2022/12/25 14:32:30;;;;;;;;;7.25;5.50;;;;;11.85;100.00;100077.78;4906747;29;45368;-91
2022/12/25 14:35:02;;;;;;;;;7.25;7.25;;;;;12.00;100.00;100102.94;4910136;29;45233;-91
2022/12/25 14:37:31;;;;;;;;;6.75;6.75;;;;;12.79;100.00;100246.91;4891119;29;45561;-91
2022/12/25 14:40:01;;;;;;;;;4.75;4.50;;;;;11.40;100.00;99996.31;4906259;29;46265;-91
2022/12/25 14:42:31;;;;;;;;;8.25;6.75;;;;;12.43;100.00;100187.16;4919337;28;45458;-92
2022/12/25 14:45:28;;;;;;;;;5.25;5.25;;;;;12.78;100.00;100223.94;4944832;28;45341;-92
2022/12/25 14:48:16;;;;;;;;;7.75;7.00;;;;;12.11;100.00;100137.00;4921208;28;45401;-92
2022/12/25 14:50:55;;;;;;;;;6.25;5.50;;;;;12.47;100.00;100187.91;4922270;28;45581;-93
2022/12/25 14:53:23;;;;;;;;;6.75;6.75;;;;;11.68;100.00;100060.66;4904715;28;46423;-92
2022/12/25 14:55:52;;;;;;;;;7.00;4.75;;;;;12.00;100.00;100117.03;4912770;28;45199;-92
2022/12/25 14:58:24;;;;;;;;;7.00;6.00;;;;;10.99;100.00;99972.91;4944195;28;45445;-92
2022/12/25 15:00:59;;;;;;;;;6.00;5.00;;;;;12.43;100.00;100205.69;4949092;28;47461;-92
2022/12/25 15:03:40;;;;;;;;;3.00;3.00;;;;;11.49;100.00;100048.94;4930206;28;45812;-91
2022/12/25 15:06:20;;;;;;;;;5.00;5.00;;;;;11.00;100.00;99977.28;4914323;28;45365;-90
2022/12/25 15:09:00;;;;;;;;;7.50;7.25;;;;;11.39;100.00;100043.09;4904250;28;45374;-92
2022/12/25 15:11:26;;;;;;;;;8.00;7.00;;;;;11.17;100.00;100037.59;4903511;28;47677;-92
2022/12/25 15:13:54;;;;;;;;;6.75;6.00;;;;;11.97;100.00;100148.91;4928079;28;45617;-91
2022/12/25 15:16:27;;;;;;;;;5.75;5.75;;;;;11.45;100.00;100079.94;4907766;28;45484;-91
2022/12/25 15:18:53;;;;;;;;;6.75;6.50;;;;;11.89;100.00;100159.72;4913856;28;45403;-91
2022/12/25 15:21:23;;;;;;;;;7.00;6.00;;;;;12.50;100.00;100251.41;4919234;28;47489;-92
2022/12/25 15:23:48;;;;;;;;;7.00;7.00;;;;;11.03;100.00;100011.56;4928323;28;45436;-92
2022/12/25 15:26:14;;;;;;;;;8.75;6.00;;;;;11.79;100.00;100142.38;4936162;28;45728;-90
2022/12/25 15:28:41;;;;;;;;;5.25;5.25;;;;;12.47;100.00;100266.56;4911363;28;45603;-90
2022/12/25 15:31:27;;;;;;;;;5.00;5.00;;;;;11.78;100.00;100143.31;4917770;28;46225;-92
2022/12/25 15:33:55;;;;;;;;;9.00;6.00;;;;;11.73;100.00;100126.69;4908568;28;45777;-92
2022/12/25 15:36:21;;;;;;;;;5.00;5.00;;;;;11.67;100.00;100140.13;4904934;28;45471;-91
2022/12/25 15:38:48;;;;;;;;;7.75;7.00;;;;;11.38;100.00;100073.94;4934229;28;45308;-92
2022/12/25 15:44:17;;;;;;;;;8.00;8.00;;;;;12.34;100.00;100260.78;4945192;28;45397;-90
2022/12/25 15:46:45;;;;;;;;;7.00;6.50;;;;;11.94;100.00;100188.75;4918582;28;45472;-91
2022/12/25 15:49:11;;;;;;;;;8.00;8.00;;;;;11.62;100.00;100152.66;4910794;28;45250;-92
2022/12/25 15:51:37;;;;;;;;;6.25;5.25;;;;;11.15;100.00;100066.72;4911791;28;47049;-92
2022/12/25 15:54:03;;;;;;;;;7.25;7.25;;;;;11.22;100.00;100067.44;4926098;28;45263;-92
2022/12/25 15:56:35;;;;;;;;;8.25;7.25;;;;;11.09;100.00;100053.69;4929861;28;45272;-90
2022/12/25 15:59:01;;;;;;;;;8.75;7.50;;;;;10.74;100.00;100001.88;4938406;28;44744;-91
2022/12/25 16:01:26;;;;;;;;;7.00;7.00;;;;;10.81;100.00;100008.69;4943166;28;47117;-93
2022/12/25 16:03:51;;;;;;;;;7.75;6.25;;;;;11.45;100.00;100113.44;4928986;28;45391;-92
2022/12/25 16:06:17;;;;;;;;;5.00;5.00;;;;;11.05;100.00;100048.53;4932352;28;45779;-94
2022/12/25 16:08:43;;;;;;;;;6.00;6.00;;;;;11.03;100.00;100067.09;4926432;28;45388;-93
2022/12/25 16:11:09;;;;;;;;;8.75;6.75;;;;;12.14;100.00;100264.91;4909698;28;47419;-91
2022/12/25 16:13:37;;;;;;;;;9.50;7.50;;;;;11.84;100.00;100204.03;4930483;28;45356;-92
2022/12/25 16:16:03;;;;;;;;;6.50;5.00;;;;;10.99;100.00;100078.69;4919109;28;45342;-94
2022/12/25 16:18:29;;;;;;;;;8.50;7.00;;;;;11.68;100.00;100197.47;4930675;28;45422;-91
2022/12/25 16:20:56;;;;;;;;;6.75;5.75;;;;;11.28;100.00;100151.91;4929257;28;46877;-92
2022/12/25 16:23:22;;;;;;;;;10.25;9.00;;;;;11.27;100.00;100160.75;4913388;28;45200;-93
2022/12/25 16:25:49;;;;;;;;;8.50;8.00;;;;;11.83;100.00;100260.53;4913569;28;44592;-93
2022/12/25 16:28:17;;;;;;;;;8.75;7.00;;;;;10.68;100.00;100086.66;4933281;28;45421;-93
2022/12/25 16:30:48;;;;;;;;;8.00;8.00;;;;;11.56;100.00;100226.03;4917943;28;47446;-92
2022/12/25 16:33:14;;;;;;;;;8.50;8.50;;;;;11.47;100.00;100221.00;4944346;28;45240;-93
2022/12/25 16:35:39;;;;;;;;;7.25;7.25;;;;;10.23;100.00;100011.22;4952369;28;45414;-91
2022/12/25 16:38:06;;;;;;;;;8.00;8.00;;;;;10.83;100.00;100118.78;4955536;28;45391;-93
2022/12/25 16:40:32;;;;;;;;;11.50;7.50;;;;;10.46;100.00;100079.28;4958976;28;46112;-93
2022/12/25 16:42:58;;;;;;;;;7.00;7.00;;;;;10.13;100.00;100032.59;4949490;28;45399;-93
2022/12/25 16:45:24;;;;;;;;;7.50;7.00;;;;;10.81;100.00;100148.81;4945838;28;45339;-94
2022/12/25 16:47:49;;;;;;;;;6.75;6.75;;;;;11.87;100.00;100325.75;4951205;28;45384;-92
2022/12/25 16:50:15;;;;;;;;;7.00;7.00;;;;;10.88;100.00;100166.25;4936421;28;46136;-93
2022/12/25 16:52:41;;;;;;;;;5.50;4.50;;;;;10.50;100.00;100096.81;4930822;28;45290;-93
2022/12/25 16:55:09;;;;;;;;;8.75;8.25;;;;;11.11;100.00;100201.75;4949508;28;45273;-92
2022/12/25 16:57:35;;;;;;;;;9.00;8.50;;;;;10.73;100.00;100143.75;4934024;28;45525;-94
2022/12/25 17:00:02;;;;;;;;;6.00;6.00;;;;;11.19;100.00;100202.44;4950416;28;46336;-94
2022/12/25 17:02:35;;;;;;;;;8.00;8.00;;;;;11.81;100.00;100315.34;4952553;28;45298;-93
2022/12/25 17:05:02;;;;;;;;;8.00;7.00;;;;;10.43;100.00;100059.13;4946540;28;45371;-93
2022/12/25 17:07:28;;;;;;;;;10.50;8.00;;;;;10.83;100.00;100129.34;4945180;28;45582;-94
2022/12/25 17:09:59;;;;;;;;;8.25;8.00;;;;;10.86;100.00;100138.13;4915581;28;46288;-94
2022/12/25 17:12:27;;;;;;;;;9.25;7.50;;;;;11.56;100.00;100252.50;4944258;28;45264;-94
2022/12/25 17:15:11;;;;;;;;;6.75;6.75;;;;;11.28;100.00;100194.22;4948983;28;45426;-93
2022/12/25 17:17:36;;;;;;;;;12.00;10.25;;;;;10.91;100.00;100136.22;4919804;28;45606;-94
2022/12/25 17:20:03;;;;;;;;;11.25;9.00;;;;;10.83;100.00;100124.06;4940253;28;47870;-94
2022/12/25 17:22:38;;;;;;;;;9.25;8.50;;;;;11.83;100.00;100292.31;4957168;28;45330;-93
2022/12/25 17:25:04;;;;;;;;;9.00;9.00;;;;;11.93;100.00;100316.75;4953940;28;45456;-91
2022/12/25 17:27:32;;;;;;;;;8.50;8.25;;;;;11.72;100.00;100297.03;4938355;28;44921;-90
2022/12/25 17:30:01;;;;;;;;;10.25;10.00;;;;;10.64;100.00;100107.00;4955059;28;46906;-91
2022/12/25 17:32:26;;;;;;;;;9.50;8.00;;;;;10.82;100.00;100147.91;4926633;28;45347;-91
2022/12/25 17:34:53;;;;;;;;;8.25;7.75;;;;;10.66;100.00;100126.34;4925375;28;45343;-92